VBD201 KLAX-KSFO
Flight info
| Callsign | VBD201 |
|---|---|
| Flight time | 0h 51m |
| Altitude | 32000 |
| Route | SUMMR2 STOKD SERFR SERFR4 |
| Aircraft | B737/M-SDE2E3FGHIRWXY/LB1 |
Departure
| Time | 2026-04-21 07:47 |
|---|---|
| Airport | Los Angeles International Airport (KLAX) |
Arrival
| Time | 2026-04-21 08:39 |
|---|---|
| Airport | San Francisco International Airport (KSFO) |
| Time | Latitude | Longitude | Altitude | Speed | Heading |
|---|---|---|---|---|---|
| 2026-04-21 07:38 | 33.94152 | -118.39078 | 125 ft | 0 kts | 24° |
| 2026-04-21 07:41 | 33.94153 | -118.39077 | 125 ft | 0 kts | 33° |
| 2026-04-21 07:42 | 33.94154 | -118.39073 | 119 ft | 1 kts | 66° |
| 2026-04-21 07:42 | 33.94149 | -118.39058 | 119 ft | 3 kts | 119° |
| 2026-04-21 07:42 | 33.94123 | -118.39033 | 123 ft | 6 kts | 154° |
| 2026-04-21 07:42 | 33.94071 | -118.39018 | 122 ft | 9 kts | 169° |
| 2026-04-21 07:43 | 33.94010 | -118.38980 | 124 ft | 11 kts | 138° |
| 2026-04-21 07:43 | 33.93993 | -118.38883 | 125 ft | 13 kts | 82° |
| 2026-04-21 07:43 | 33.94003 | -118.38769 | 125 ft | 14 kts | 85° |
| 2026-04-21 07:43 | 33.94015 | -118.38658 | 124 ft | 13 kts | 84° |
| 2026-04-21 07:44 | 33.94027 | -118.38552 | 121 ft | 13 kts | 81° |
| 2026-04-21 07:44 | 33.94038 | -118.38448 | 125 ft | 12 kts | 83° |
| 2026-04-21 07:44 | 33.94027 | -118.38352 | 123 ft | 12 kts | 133° |
| 2026-04-21 07:44 | 33.93950 | -118.38321 | 123 ft | 12 kts | 173° |
| 2026-04-21 07:45 | 33.93891 | -118.38311 | 122 ft | 0 kts | 172° |
| 2026-04-21 07:45 | 33.93890 | -118.38311 | 122 ft | 1 kts | 172° |
| 2026-04-21 07:45 | 33.93877 | -118.38309 | 122 ft | 3 kts | 172° |
| 2026-04-21 07:46 | 33.93844 | -118.38304 | 124 ft | 6 kts | 172° |
| 2026-04-21 07:46 | 33.93791 | -118.38297 | 124 ft | 9 kts | 178° |
| 2026-04-21 07:46 | 33.93747 | -118.38358 | 123 ft | 20 kts | 255° |
| 2026-04-21 07:46 | 33.93670 | -118.38959 | 123 ft | 123 kts | 263° |
| 2026-04-21 07:47 | 33.93556 | -118.40291 | 449 ft | 190 kts | 266° |
| 2026-04-21 07:47 | 33.93531 | -118.42178 | 836 ft | 252 kts | 268° |
| 2026-04-21 07:47 | 33.93339 | -118.44243 | 2318 ft | 238 kts | 261° |
| 2026-04-21 07:47 | 33.93073 | -118.46306 | 2940 ft | 260 kts | 262° |
| 2026-04-21 07:48 | 33.92914 | -118.48500 | 4069 ft | 263 kts | 265° |
| 2026-04-21 07:48 | 33.92800 | -118.50716 | 4902 ft | 267 kts | 263° |
| 2026-04-21 07:48 | 33.92619 | -118.52939 | 6076 ft | 265 kts | 262° |
| 2026-04-21 07:48 | 33.92429 | -118.55142 | 7253 ft | 266 kts | 261° |
| 2026-04-21 07:49 | 33.92238 | -118.57373 | 8284 ft | 270 kts | 261° |
| 2026-04-21 07:49 | 33.92046 | -118.59644 | 9318 ft | 274 kts | 260° |
| 2026-04-21 07:49 | 33.91854 | -118.61944 | 10322 ft | 279 kts | 260° |
| 2026-04-21 07:49 | 33.91710 | -118.64370 | 10771 ft | 305 kts | 264° |
| 2026-04-21 07:50 | 33.91694 | -118.66985 | 11435 ft | 318 kts | 266° |
| 2026-04-21 07:50 | 33.91711 | -118.69651 | 11847 ft | 319 kts | 266° |
| 2026-04-21 07:50 | 33.91726 | -118.72337 | 12083 ft | 322 kts | 265° |
| 2026-04-21 07:50 | 33.91730 | -118.75036 | 12081 ft | 322 kts | 265° |
| 2026-04-21 07:51 | 33.91725 | -118.77727 | 12090 ft | 321 kts | 265° |
| 2026-04-21 07:51 | 33.91714 | -118.80416 | 12094 ft | 321 kts | 265° |
| 2026-04-21 07:51 | 33.91702 | -118.83100 | 12096 ft | 321 kts | 265° |
| 2026-04-21 07:51 | 33.91741 | -118.85812 | 12455 ft | 327 kts | 267° |
| 2026-04-21 07:52 | 33.91834 | -118.88558 | 13442 ft | 328 kts | 267° |
| 2026-04-21 07:52 | 33.91931 | -118.91305 | 14422 ft | 329 kts | 267° |
| 2026-04-21 07:52 | 33.92019 | -118.94079 | 15249 ft | 334 kts | 266° |
| 2026-04-21 07:52 | 33.92103 | -118.96899 | 16058 ft | 339 kts | 267° |
| 2026-04-21 07:53 | 33.92305 | -118.99715 | 16844 ft | 350 kts | 278° |
| 2026-04-21 07:53 | 33.93273 | -119.02466 | 17657 ft | 366 kts | 298° |
| 2026-04-21 07:53 | 33.95002 | -119.04788 | 18479 ft | 378 kts | 312° |
| 2026-04-21 07:53 | 33.96974 | -119.06919 | 19208 ft | 382 kts | 314° |
| 2026-04-21 07:54 | 33.98998 | -119.09013 | 19967 ft | 385 kts | 315° |
| 2026-04-21 07:54 | 34.01047 | -119.11113 | 20753 ft | 387 kts | 315° |
| 2026-04-21 07:54 | 34.03096 | -119.13223 | 21516 ft | 389 kts | 315° |
| 2026-04-21 07:54 | 34.05156 | -119.15362 | 22258 ft | 392 kts | 314° |
| 2026-04-21 07:55 | 34.07220 | -119.17523 | 22989 ft | 394 kts | 314° |
| 2026-04-21 07:55 | 34.09291 | -119.19705 | 23703 ft | 397 kts | 314° |
| 2026-04-21 07:55 | 34.11373 | -119.21907 | 24292 ft | 400 kts | 314° |
| 2026-04-21 07:55 | 34.13472 | -119.24134 | 24850 ft | 403 kts | 314° |
| 2026-04-21 07:56 | 34.15585 | -119.26380 | 25411 ft | 407 kts | 313° |
| 2026-04-21 07:56 | 34.17714 | -119.28645 | 25970 ft | 410 kts | 313° |
| 2026-04-21 07:56 | 34.19860 | -119.30930 | 26512 ft | 413 kts | 313° |
| 2026-04-21 07:56 | 34.22024 | -119.33237 | 27031 ft | 416 kts | 313° |
| 2026-04-21 07:57 | 34.24207 | -119.35565 | 27560 ft | 420 kts | 313° |
| 2026-04-21 07:57 | 34.26402 | -119.37907 | 28077 ft | 423 kts | 313° |
| 2026-04-21 07:57 | 34.28617 | -119.40273 | 28582 ft | 426 kts | 313° |
| 2026-04-21 07:57 | 34.30849 | -119.42657 | 29077 ft | 430 kts | 313° |
| 2026-04-21 07:58 | 34.33097 | -119.45061 | 29549 ft | 433 kts | 313° |
| 2026-04-21 07:58 | 34.35362 | -119.47485 | 30014 ft | 436 kts | 313° |
| 2026-04-21 07:58 | 34.37642 | -119.49927 | 30423 ft | 439 kts | 313° |
| 2026-04-21 07:58 | 34.39942 | -119.52391 | 30829 ft | 442 kts | 313° |
| 2026-04-21 07:59 | 34.42245 | -119.54860 | 31234 ft | 444 kts | 313° |
| 2026-04-21 07:59 | 34.44562 | -119.57345 | 31614 ft | 446 kts | 313° |
| 2026-04-21 07:59 | 34.46884 | -119.59840 | 31978 ft | 448 kts | 313° |
| 2026-04-21 07:59 | 34.49221 | -119.62350 | 32064 ft | 450 kts | 313° |
| 2026-04-21 08:00 | 34.53910 | -119.67396 | 32072 ft | 451 kts | 313° |
| 2026-04-21 08:00 | 34.58590 | -119.72437 | 32080 ft | 450 kts | 313° |
| 2026-04-21 08:01 | 34.63275 | -119.77495 | 32087 ft | 451 kts | 312° |
| 2026-04-21 08:02 | 34.70311 | -119.85107 | 32081 ft | 452 kts | 312° |
| 2026-04-21 08:02 | 34.75007 | -119.90199 | 32080 ft | 453 kts | 312° |
| 2026-04-21 08:03 | 34.79713 | -119.95307 | 32076 ft | 454 kts | 312° |
| 2026-04-21 08:03 | 34.84418 | -120.00422 | 32080 ft | 453 kts | 311° |
| 2026-04-21 08:04 | 34.89090 | -120.05510 | 32077 ft | 453 kts | 311° |
| 2026-04-21 08:04 | 34.93783 | -120.10630 | 32070 ft | 453 kts | 311° |
| 2026-04-21 08:05 | 34.98413 | -120.15677 | 32039 ft | 432 kts | 311° |
| 2026-04-21 08:05 | 35.00616 | -120.18072 | 32039 ft | 416 kts | 311° |
| 2026-04-21 08:05 | 35.02055 | -120.19639 | 32029 ft | 406 kts | 311° |
| 2026-04-21 08:06 | 35.06189 | -120.24166 | 32055 ft | 397 kts | 310° |
| 2026-04-21 08:06 | 35.10387 | -120.28808 | 32065 ft | 419 kts | 310° |
| 2026-04-21 08:06 | 35.12579 | -120.31233 | 32074 ft | 430 kts | 310° |
| 2026-04-21 08:07 | 35.14823 | -120.33711 | 32063 ft | 440 kts | 311° |
| 2026-04-21 08:07 | 35.19428 | -120.38784 | 32051 ft | 455 kts | 311° |
| 2026-04-21 08:08 | 35.24146 | -120.43970 | 32042 ft | 457 kts | 311° |
| 2026-04-21 08:08 | 35.28874 | -120.49177 | 32039 ft | 457 kts | 311° |
| 2026-04-21 08:09 | 35.33584 | -120.54379 | 32028 ft | 454 kts | 310° |
| 2026-04-21 08:09 | 35.38253 | -120.59548 | 32030 ft | 451 kts | 310° |
| 2026-04-21 08:10 | 35.42893 | -120.64697 | 32021 ft | 449 kts | 310° |
| 2026-04-21 08:10 | 35.47521 | -120.69842 | 32046 ft | 450 kts | 310° |
| 2026-04-21 08:11 | 35.52165 | -120.75015 | 32064 ft | 451 kts | 310° |
| 2026-04-21 08:11 | 35.56817 | -120.80204 | 32064 ft | 453 kts | 310° |
| 2026-04-21 08:12 | 35.61488 | -120.85422 | 32045 ft | 454 kts | 310° |
| 2026-04-21 08:12 | 35.66167 | -120.90655 | 32046 ft | 455 kts | 310° |
| 2026-04-21 08:13 | 35.70854 | -120.95907 | 32032 ft | 456 kts | 309° |
| 2026-04-21 08:13 | 35.75545 | -121.01171 | 32020 ft | 456 kts | 309° |
| 2026-04-21 08:14 | 35.80225 | -121.06432 | 32013 ft | 455 kts | 309° |
| 2026-04-21 08:14 | 35.84903 | -121.11702 | 32008 ft | 456 kts | 309° |
| 2026-04-21 08:15 | 35.89516 | -121.16893 | 31991 ft | 435 kts | 309° |
| 2026-04-21 08:15 | 35.91729 | -121.19382 | 31689 ft | 427 kts | 308° |
| 2026-04-21 08:15 | 35.93899 | -121.21834 | 31388 ft | 419 kts | 308° |
| 2026-04-21 08:15 | 35.96037 | -121.24259 | 30967 ft | 416 kts | 308° |
| 2026-04-21 08:16 | 35.98154 | -121.26664 | 30581 ft | 412 kts | 307° |
| 2026-04-21 08:16 | 36.00253 | -121.29051 | 30191 ft | 409 kts | 307° |
| 2026-04-21 08:16 | 36.02334 | -121.31417 | 29767 ft | 405 kts | 307° |
| 2026-04-21 08:16 | 36.04397 | -121.33764 | 29333 ft | 401 kts | 307° |
| 2026-04-21 08:17 | 36.06441 | -121.36080 | 28913 ft | 397 kts | 307° |
| 2026-04-21 08:17 | 36.08613 | -121.38142 | 28561 ft | 400 kts | 316° |
| 2026-04-21 08:17 | 36.10962 | -121.39997 | 28125 ft | 401 kts | 318° |
| 2026-04-21 08:17 | 36.13342 | -121.41779 | 27721 ft | 399 kts | 319° |
| 2026-04-21 08:18 | 36.15713 | -121.43544 | 27317 ft | 397 kts | 319° |
| 2026-04-21 08:18 | 36.18060 | -121.45311 | 26923 ft | 390 kts | 318° |
| 2026-04-21 08:18 | 36.20355 | -121.47061 | 26571 ft | 386 kts | 317° |
| 2026-04-21 08:18 | 36.22630 | -121.48819 | 26172 ft | 385 kts | 317° |
| 2026-04-21 08:19 | 36.24885 | -121.50575 | 25775 ft | 382 kts | 317° |
| 2026-04-21 08:19 | 36.27123 | -121.52324 | 25390 ft | 380 kts | 317° |
| 2026-04-21 08:19 | 36.29352 | -121.54068 | 25010 ft | 377 kts | 317° |
| 2026-04-21 08:19 | 36.31551 | -121.55789 | 24664 ft | 371 kts | 317° |
| 2026-04-21 08:20 | 36.33722 | -121.57488 | 24276 ft | 366 kts | 316° |
| 2026-04-21 08:20 | 36.35866 | -121.59168 | 23960 ft | 364 kts | 316° |
| 2026-04-21 08:20 | 36.38016 | -121.60861 | 23581 ft | 368 kts | 316° |
| 2026-04-21 08:20 | 36.40193 | -121.62578 | 23176 ft | 374 kts | 317° |
| 2026-04-21 08:21 | 36.42414 | -121.64329 | 22747 ft | 382 kts | 317° |
| 2026-04-21 08:21 | 36.44663 | -121.66094 | 22335 ft | 381 kts | 317° |
| 2026-04-21 08:21 | 36.46895 | -121.67841 | 21921 ft | 378 kts | 317° |
| 2026-04-21 08:21 | 36.49110 | -121.69580 | 21533 ft | 376 kts | 318° |
| 2026-04-21 08:22 | 36.51308 | -121.71311 | 21190 ft | 372 kts | 318° |
| 2026-04-21 08:22 | 36.53480 | -121.73024 | 20840 ft | 368 kts | 318° |
| 2026-04-21 08:22 | 36.55638 | -121.74731 | 20435 ft | 367 kts | 319° |
| 2026-04-21 08:22 | 36.57783 | -121.76429 | 20060 ft | 365 kts | 319° |
| 2026-04-21 08:23 | 36.59921 | -121.78123 | 19666 ft | 364 kts | 319° |
| 2026-04-21 08:23 | 36.62055 | -121.79815 | 19279 ft | 363 kts | 320° |
| 2026-04-21 08:23 | 36.64181 | -121.81501 | 18892 ft | 362 kts | 320° |
| 2026-04-21 08:23 | 36.66300 | -121.83183 | 18500 ft | 362 kts | 320° |
| 2026-04-21 08:24 | 36.68427 | -121.84871 | 18073 ft | 362 kts | 321° |
| 2026-04-21 08:24 | 36.70543 | -121.86551 | 17645 ft | 360 kts | 321° |
| 2026-04-21 08:24 | 36.72652 | -121.88226 | 17237 ft | 358 kts | 321° |
| 2026-04-21 08:24 | 36.74852 | -121.89688 | 16820 ft | 364 kts | 338° |
| 2026-04-21 08:25 | 36.77307 | -121.90459 | 16503 ft | 362 kts | 345° |
| 2026-04-21 08:25 | 36.79764 | -121.91099 | 16086 ft | 361 kts | 346° |
| 2026-04-21 08:25 | 36.82219 | -121.91730 | 15698 ft | 359 kts | 346° |
| 2026-04-21 08:25 | 36.84658 | -121.92374 | 15314 ft | 357 kts | 345° |
| 2026-04-21 08:26 | 36.87083 | -121.93032 | 14933 ft | 356 kts | 345° |
| 2026-04-21 08:26 | 36.89494 | -121.93701 | 14550 ft | 354 kts | 345° |
| 2026-04-21 08:26 | 36.91894 | -121.94372 | 14163 ft | 353 kts | 345° |
| 2026-04-21 08:26 | 36.94285 | -121.95042 | 13781 ft | 352 kts | 345° |
| 2026-04-21 08:27 | 36.96649 | -121.95784 | 13436 ft | 347 kts | 341° |
| 2026-04-21 08:27 | 36.98910 | -121.96643 | 13067 ft | 343 kts | 339° |
| 2026-04-21 08:27 | 37.01179 | -121.97554 | 12681 ft | 341 kts | 339° |
| 2026-04-21 08:27 | 37.03435 | -121.98466 | 12288 ft | 340 kts | 339° |
| 2026-04-21 08:28 | 37.05681 | -121.99365 | 11881 ft | 339 kts | 338° |
| 2026-04-21 08:28 | 37.07925 | -122.00257 | 11470 ft | 337 kts | 339° |
| 2026-04-21 08:28 | 37.10164 | -122.01140 | 11037 ft | 338 kts | 340° |
| 2026-04-21 08:28 | 37.12405 | -122.02020 | 10608 ft | 337 kts | 339° |
| 2026-04-21 08:29 | 37.14650 | -122.02900 | 10172 ft | 338 kts | 339° |
| 2026-04-21 08:29 | 37.16876 | -122.03771 | 9888 ft | 334 kts | 339° |
| 2026-04-21 08:29 | 37.19046 | -122.04618 | 9816 ft | 319 kts | 339° |
| 2026-04-21 08:29 | 37.21211 | -122.05468 | 9135 ft | 329 kts | 338° |
| 2026-04-21 08:30 | 37.23384 | -122.06322 | 8677 ft | 325 kts | 340° |
| 2026-04-21 08:30 | 37.25532 | -122.07160 | 8314 ft | 323 kts | 338° |
| 2026-04-21 08:30 | 37.27670 | -122.08001 | 7874 ft | 321 kts | 338° |
| 2026-04-21 08:30 | 37.29776 | -122.08828 | 7476 ft | 315 kts | 339° |
| 2026-04-21 08:31 | 37.31862 | -122.09651 | 7095 ft | 312 kts | 338° |
| 2026-04-21 08:31 | 37.33927 | -122.10467 | 6700 ft | 311 kts | 339° |
| 2026-04-21 08:31 | 37.35986 | -122.11279 | 6291 ft | 309 kts | 339° |
| 2026-04-21 08:31 | 37.38022 | -122.12075 | 5872 ft | 305 kts | 340° |
| 2026-04-21 08:32 | 37.40060 | -122.12782 | 5506 ft | 302 kts | 342° |
| 2026-04-21 08:32 | 37.42059 | -122.13437 | 5450 ft | 284 kts | 342° |
| 2026-04-21 08:32 | 37.43904 | -122.14036 | 5359 ft | 265 kts | 341° |
| 2026-04-21 08:32 | 37.45629 | -122.14605 | 5249 ft | 247 kts | 341° |
| 2026-04-21 08:33 | 37.47236 | -122.15141 | 5119 ft | 232 kts | 341° |
| 2026-04-21 08:33 | 37.48745 | -122.15647 | 4991 ft | 217 kts | 341° |
| 2026-04-21 08:33 | 37.50161 | -122.16123 | 4845 ft | 206 kts | 341° |
| 2026-04-21 08:33 | 37.51528 | -122.16584 | 4582 ft | 202 kts | 341° |
| 2026-04-21 08:34 | 37.52872 | -122.17066 | 4259 ft | 199 kts | 332° |
| 2026-04-21 08:34 | 37.53893 | -122.18128 | 3978 ft | 185 kts | 299° |
| 2026-04-21 08:34 | 37.54521 | -122.19453 | 3836 ft | 170 kts | 293° |
| 2026-04-21 08:34 | 37.55098 | -122.20742 | 3498 ft | 164 kts | 293° |
| 2026-04-21 08:35 | 37.55610 | -122.21932 | 3276 ft | 151 kts | 292° |
| 2026-04-21 08:35 | 37.56098 | -122.23100 | 2878 ft | 150 kts | 292° |
| 2026-04-21 08:35 | 37.56579 | -122.24258 | 2500 ft | 148 kts | 292° |
| 2026-04-21 08:35 | 37.57036 | -122.25353 | 2134 ft | 139 kts | 294° |
| 2026-04-21 08:36 | 37.57482 | -122.26425 | 1823 ft | 138 kts | 294° |
| 2026-04-21 08:36 | 37.57930 | -122.27503 | 1567 ft | 136 kts | 295° |
| 2026-04-21 08:36 | 37.58369 | -122.28556 | 1369 ft | 136 kts | 295° |
| 2026-04-21 08:36 | 37.58805 | -122.29602 | 1193 ft | 137 kts | 295° |
| 2026-04-21 08:37 | 37.59246 | -122.30659 | 990 ft | 135 kts | 296° |
| 2026-04-21 08:37 | 37.59681 | -122.31703 | 796 ft | 135 kts | 296° |
| 2026-04-21 08:37 | 37.60123 | -122.32752 | 604 ft | 136 kts | 297° |
| 2026-04-21 08:37 | 37.60563 | -122.33812 | 418 ft | 137 kts | 297° |
| 2026-04-21 08:38 | 37.61006 | -122.34875 | 231 ft | 137 kts | 296° |
| 2026-04-21 08:38 | 37.61446 | -122.35932 | 49 ft | 136 kts | 296° |
| 2026-04-21 08:38 | 37.61822 | -122.36847 | 17 ft | 85 kts | 294° |
| 2026-04-21 08:38 | 37.62042 | -122.37385 | 15 ft | 53 kts | 298° |
| 2026-04-21 08:39 | 37.62141 | -122.37608 | 18 ft | 19 kts | 301° |
| 2026-04-21 08:39 | 37.62189 | -122.37758 | 18 ft | 18 kts | 264° |
| 2026-04-21 08:39 | 37.62211 | -122.37914 | 21 ft | 18 kts | 281° |
| 2026-04-21 08:39 | 37.62223 | -122.38068 | 23 ft | 17 kts | 275° |
| 2026-04-21 08:40 | 37.62214 | -122.38213 | 21 ft | 17 kts | 246° |
| 2026-04-21 08:40 | 37.62139 | -122.38316 | 19 ft | 16 kts | 201° |
| 2026-04-21 08:40 | 37.62043 | -122.38356 | 21 ft | 13 kts | 201° |
| 2026-04-21 08:40 | 37.61992 | -122.38393 | 21 ft | 6 kts | 219° |
| 2026-04-21 08:41 | 37.61980 | -122.38405 | 19 ft | 0 kts | 219° |